Time;durP1;ratioP1;P1;durP2;ratioP2;P2;SDS_P1;SDS_P2;PMS_P1;PMS_P2;Temp;Humidity;BMP_temperature;BMP_pressure;BME280_temperature;BME280_humidity;BME280_pressure;Samples;Min_cycle;Max_cycle;Signal;HPM_P1;HPM_P2
2022/12/30 00:01:32;;;;;;;17.37;7.90;;;;;;;;;;5131107;27;20253;-74
2022/12/30 00:03:59;;;;;;;16.57;7.53;;;;;;;;;;5135032;27;20205;-77
2022/12/30 00:06:27;;;;;;;15.17;7.47;;;;;;;;;;5134649;27;20220;-74
2022/12/30 00:08:56;;;;;;;17.63;7.83;;;;;;;;;;5134121;27;20293;-74
2022/12/30 00:11:24;;;;;;;14.47;6.93;;;;;;;;;;5135135;27;20725;-74
2022/12/30 00:33:36;;;;;;;13.67;5.93;;;;;;;;;;5132919;27;20223;-77
2022/12/30 00:36:05;;;;;;;13.00;5.83;;;;;;;;;;5133417;27;20204;-77
2022/12/30 00:38:33;;;;;;;14.93;6.27;;;;;;;;;;5133154;27;20273;-74
2022/12/30 00:43:45;;;;;;;13.30;5.97;;;;;;;;;;5133252;27;20208;-77
2022/12/30 00:46:12;;;;;;;11.30;5.03;;;;;;;;;;5133250;27;20239;-76
2022/12/30 00:56:55;;;;;;;14.60;5.60;;;;;;;;;;5132740;27;20208;-76
2022/12/30 00:59:22;;;;;;;18.57;5.23;;;;;;;;;;5132552;27;20221;-75
2022/12/30 01:01:50;;;;;;;15.33;4.80;;;;;;;;;;5132733;27;20781;-76
2022/12/30 01:04:17;;;;;;;9.60;5.03;;;;;;;;;;5132666;27;20638;-76
2022/12/30 01:06:46;;;;;;;13.77;5.17;;;;;;;;;;5132423;27;20224;-76
2022/12/30 01:09:13;;;;;;;11.20;5.10;;;;;;;;;;5132706;27;20617;-76
2022/12/30 01:11:40;;;;;;;13.37;4.83;;;;;;;;;;5132509;27;20284;-76
2022/12/30 01:14:07;;;;;;;8.33;4.83;;;;;;;;;;5132278;27;20289;-76
2022/12/30 01:16:34;;;;;;;13.97;4.80;;;;;;;;;;5131808;27;20252;-77
2022/12/30 01:19:02;;;;;;;10.03;4.80;;;;;;;;;;5132992;27;20225;-74
2022/12/30 01:21:29;;;;;;;13.43;4.40;;;;;;;;;;5132319;27;20193;-77
2022/12/30 01:23:57;;;;;;;10.23;3.80;;;;;;;;;;5132213;27;20197;-76
2022/12/30 01:26:25;;;;;;;18.70;5.07;;;;;;;;;;5131924;27;20220;-76
2022/12/30 01:28:52;;;;;;;10.07;4.27;;;;;;;;;;5132845;27;20225;-77
2022/12/30 01:31:19;;;;;;;11.90;4.50;;;;;;;;;;5132738;27;20231;-76
2022/12/30 01:33:46;;;;;;;10.87;3.77;;;;;;;;;;5133354;27;20259;-76
2022/12/30 01:36:13;;;;;;;13.47;4.17;;;;;;;;;;5133514;27;20656;-77
2022/12/30 01:38:40;;;;;;;11.33;3.63;;;;;;;;;;5124458;27;20299;-78
2022/12/30 01:41:09;;;;;;;15.03;3.80;;;;;;;;;;5132773;27;20197;-76
2022/12/30 01:43:44;;;;;;;12.10;2.87;;;;;;;;;;5132490;27;20237;-76
2022/12/30 01:46:12;;;;;;;13.60;3.60;;;;;;;;;;5131994;27;20224;-75
2022/12/30 01:48:40;;;;;;;9.63;3.67;;;;;;;;;;5131935;27;20288;-75
2022/12/30 01:51:09;;;;;;;13.03;3.30;;;;;;;;;;5131789;27;20282;-75
2022/12/30 01:53:38;;;;;;;12.23;3.13;;;;;;;;;;5131756;27;20251;-75
2022/12/30 01:56:07;;;;;;;13.60;3.20;;;;;;;;;;5131752;27;20236;-75
2022/12/30 01:58:38;;;;;;;13.87;3.40;;;;;;;;;;5131392;27;20233;-75
2022/12/30 02:01:06;;;;;;;9.77;2.67;;;;;;;;;;5131937;27;20632;-74
2022/12/30 02:03:35;;;;;;;8.50;3.23;;;;;;;;;;5132063;27;20228;-74
2022/12/30 02:06:03;;;;;;;13.90;3.60;;;;;;;;;;5131106;27;20642;-74
2022/12/30 02:08:30;;;;;;;10.23;3.27;;;;;;;;;;5127640;27;20240;-74
2022/12/30 02:10:58;;;;;;;9.47;2.93;;;;;;;;;;5130705;27;20240;-76
2022/12/30 02:13:25;;;;;;;12.93;3.10;;;;;;;;;;5131354;27;20953;-73
2022/12/30 02:15:59;;;;;;;13.60;3.33;;;;;;;;;;5131129;27;20224;-76
2022/12/30 02:18:31;;;;;;;14.17;3.33;;;;;;;;;;5131054;27;20587;-75
2022/12/30 02:21:16;;;;;;;10.20;3.43;;;;;;;;;;5131253;27;20236;-77
2022/12/30 02:23:54;;;;;;;16.90;3.37;;;;;;;;;;5122442;27;20224;-76
2022/12/30 02:26:39;;;;;;;6.87;3.00;;;;;;;;;;5130921;27;20189;-77
2022/12/30 02:29:21;;;;;;;10.97;2.80;;;;;;;;;;5126231;27;20197;-77
2022/12/30 02:31:54;;;;;;;10.10;2.80;;;;;;;;;;5113367;27;20217;-77
2022/12/30 02:34:25;;;;;;;9.63;3.20;;;;;;;;;;5130086;27;20320;-77
2022/12/30 02:36:56;;;;;;;11.37;2.90;;;;;;;;;;5130774;27;20240;-76
2022/12/30 02:39:26;;;;;;;12.73;3.00;;;;;;;;;;5130725;27;20583;-77
2022/12/30 02:44:45;;;;;;;11.57;2.77;;;;;;;;;;5123112;27;20204;-76
2022/12/30 02:47:15;;;;;;;10.87;2.50;;;;;;;;;;5130793;27;20250;-77
2022/12/30 02:49:43;;;;;;;12.67;3.30;;;;;;;;;;5130782;27;20671;-76
2022/12/30 02:52:15;;;;;;;8.43;2.67;;;;;;;;;;5131243;27;20245;-76
2022/12/30 02:54:42;;;;;;;9.73;2.67;;;;;;;;;;5130709;27;20221;-76
2022/12/30 02:57:26;;;;;;;7.23;2.23;;;;;;;;;;5130705;27;20231;-76
2022/12/30 03:05:36;;;;;;;17.67;2.90;;;;;;;;;;5130558;27;20204;-76
2022/12/30 03:08:07;;;;;;;12.77;2.73;;;;;;;;;;5130664;27;20224;-76
2022/12/30 03:13:27;;;;;;;10.30;2.40;;;;;;;;;;5130463;27;20253;-76
2022/12/30 03:15:58;;;;;;;11.40;2.70;;;;;;;;;;5130810;28;20225;-76
2022/12/30 03:18:27;;;;;;;14.17;2.33;;;;;;;;;;5129568;28;20201;-76
2022/12/30 03:20:55;;;;;;;14.47;2.93;;;;;;;;;;5130593;28;20687;-76
2022/12/30 03:28:53;;;;;;;13.87;2.50;;;;;;;;;;5125618;28;20227;-76
2022/12/30 03:31:21;;;;;;;13.63;2.40;;;;;;;;;;5131721;28;20240;-76
2022/12/30 03:33:50;;;;;;;13.83;2.60;;;;;;;;;;5131234;28;20260;-76
2022/12/30 03:36:19;;;;;;;14.67;2.10;;;;;;;;;;5132915;27;20250;-76
2022/12/30 03:38:49;;;;;;;11.20;2.37;;;;;;;;;;5136897;27;20224;-76
2022/12/30 03:41:16;;;;;;;15.53;2.50;;;;;;;;;;5135389;27;20225;-77
2022/12/30 03:43:44;;;;;;;7.73;2.40;;;;;;;;;;5134812;27;20674;-75
2022/12/30 03:46:11;;;;;;;17.17;2.47;;;;;;;;;;5134854;27;20220;-77
2022/12/30 03:48:38;;;;;;;11.07;2.37;;;;;;;;;;5133581;27;20239;-76
2022/12/30 03:51:07;;;;;;;12.17;2.27;;;;;;;;;;5134460;27;20221;-76
2022/12/30 03:53:34;;;;;;;14.43;2.73;;;;;;;;;;5133990;27;20697;-76
2022/12/30 03:56:01;;;;;;;13.27;2.50;;;;;;;;;;5133875;27;20255;-76
2022/12/30 03:58:28;;;;;;;12.07;2.70;;;;;;;;;;5134046;27;20284;-76
2022/12/30 04:00:55;;;;;;;14.10;2.33;;;;;;;;;;5134389;27;20235;-76
2022/12/30 04:03:23;;;;;;;15.83;2.93;;;;;;;;;;5133446;27;20736;-76
2022/12/30 04:05:53;;;;;;;11.60;2.60;;;;;;;;;;5133873;27;20225;-76
2022/12/30 04:08:22;;;;;;;9.63;2.00;;;;;;;;;;5133701;27;20573;-76
2022/12/30 04:10:50;;;;;;;12.87;2.40;;;;;;;;;;5133921;27;20243;-77
2022/12/30 04:13:17;;;;;;;8.80;2.43;;;;;;;;;;5133646;27;20217;-76
2022/12/30 04:15:47;;;;;;;12.30;2.57;;;;;;;;;;5133414;27;20316;-77
2022/12/30 04:18:14;;;;;;;13.07;2.63;;;;;;;;;;5133536;27;20242;-78
2022/12/30 04:20:42;;;;;;;12.87;2.27;;;;;;;;;;5134109;27;20217;-76
2022/12/30 04:23:09;;;;;;;14.70;2.50;;;;;;;;;;5133289;27;20194;-77
2022/12/30 04:25:38;;;;;;;15.60;2.60;;;;;;;;;;5133402;27;20201;-77
2022/12/30 04:28:05;;;;;;;12.90;2.53;;;;;;;;;;5132949;27;20198;-76
2022/12/30 04:30:33;;;;;;;21.10;3.30;;;;;;;;;;5133127;27;20247;-76
2022/12/30 04:33:00;;;;;;;14.60;2.27;;;;;;;;;;5133792;27;20257;-77
2022/12/30 04:35:27;;;;;;;12.60;2.23;;;;;;;;;;5133005;27;20311;-77
2022/12/30 04:37:54;;;;;;;12.10;2.77;;;;;;;;;;5132956;27;20239;-76
2022/12/30 04:40:22;;;;;;;18.33;2.30;;;;;;;;;;5133315;27;20228;-76
2022/12/30 04:42:50;;;;;;;16.83;2.57;;;;;;;;;;5135677;27;20679;-77
2022/12/30 04:45:18;;;;;;;13.87;2.67;;;;;;;;;;5133910;27;20227;-76
2022/12/30 04:47:45;;;;;;;13.43;2.47;;;;;;;;;;5133214;27;20224;-76
2022/12/30 04:50:12;;;;;;;10.37;2.40;;;;;;;;;;5133454;27;20299;-76
2022/12/30 04:52:39;;;;;;;21.03;2.83;;;;;;;;;;5133075;27;20198;-78
2022/12/30 04:55:07;;;;;;;13.37;2.70;;;;;;;;;;5133297;27;20257;-77
2022/12/30 04:57:34;;;;;;;14.77;2.53;;;;;;;;;;5132897;27;20240;-77
2022/12/30 05:00:05;;;;;;;16.47;2.23;;;;;;;;;;5132812;27;20283;-76
2022/12/30 05:02:32;;;;;;;17.97;3.23;;;;;;;;;;5132919;27;20363;-77
2022/12/30 05:04:59;;;;;;;10.57;2.17;;;;;;;;;;5133177;27;20907;-77
2022/12/30 05:07:26;;;;;;;14.50;3.17;;;;;;;;;;5132492;27;20228;-76
2022/12/30 05:09:53;;;;;;;18.87;2.47;;;;;;;;;;5132746;27;20257;-76
2022/12/30 05:12:21;;;;;;;14.70;2.87;;;;;;;;;;5132773;27;20728;-77
2022/12/30 05:14:48;;;;;;;10.10;2.10;;;;;;;;;;5132290;27;20256;-77
2022/12/30 05:17:17;;;;;;;14.27;2.80;;;;;;;;;;5131776;27;20296;-76
2022/12/30 05:19:44;;;;;;;15.53;2.47;;;;;;;;;;5133206;27;20223;-77
2022/12/30 05:22:11;;;;;;;13.03;2.70;;;;;;;;;;5132975;27;20334;-76
2022/12/30 05:27:23;;;;;;;9.83;2.47;;;;;;;;;;5131967;27;20207;-76
2022/12/30 05:29:50;;;;;;;12.33;2.30;;;;;;;;;;5132223;27;20228;-76
2022/12/30 05:32:18;;;;;;;6.13;1.87;;;;;;;;;;5131893;27;20667;-76
2022/12/30 05:34:46;;;;;;;11.37;2.40;;;;;;;;;;5132552;27;20316;-76
2022/12/30 05:37:13;;;;;;;15.23;2.30;;;;;;;;;;5131940;27;20221;-76
2022/12/30 05:39:40;;;;;;;7.00;2.40;;;;;;;;;;5132190;27;20249;-76
2022/12/30 05:42:07;;;;;;;5.90;1.67;;;;;;;;;;5131930;27;20718;-75
2022/12/30 05:44:34;;;;;;;10.10;2.20;;;;;;;;;;5132010;27;20293;-76
2022/12/30 05:47:02;;;;;;;8.67;2.27;;;;;;;;;;5131958;27;20238;-75
2022/12/30 05:49:30;;;;;;;4.87;1.60;;;;;;;;;;5131786;27;20211;-76
2022/12/30 05:51:57;;;;;;;8.23;1.63;;;;;;;;;;5132398;27;20686;-76
2022/12/30 05:54:24;;;;;;;6.60;2.00;;;;;;;;;;5131691;27;20307;-76
2022/12/30 05:56:52;;;;;;;9.47;2.03;;;;;;;;;;5131447;27;20220;-76
2022/12/30 05:59:19;;;;;;;10.57;2.27;;;;;;;;;;5131098;27;20587;-76
2022/12/30 06:01:46;;;;;;;4.77;1.63;;;;;;;;;;5131902;27;20312;-76
2022/12/30 06:04:13;;;;;;;7.90;1.70;;;;;;;;;;5131659;27;20232;-75
2022/12/30 06:06:42;;;;;;;5.20;1.70;;;;;;;;;;5123818;27;20250;-75
2022/12/30 06:09:09;;;;;;;4.23;1.60;;;;;;;;;;5131621;27;20240;-75
2022/12/30 06:11:36;;;;;;;3.70;1.50;;;;;;;;;;5130912;27;20207;-74
2022/12/30 06:14:04;;;;;;;4.83;1.43;;;;;;;;;;5131425;27;20628;-75
2022/12/30 06:16:31;;;;;;;10.20;1.60;;;;;;;;;;5130639;27;20308;-75
2022/12/30 06:18:58;;;;;;;3.13;1.53;;;;;;;;;;5131699;27;20232;-76
2022/12/30 06:21:25;;;;;;;2.90;1.30;;;;;;;;;;5131653;27;20343;-76
2022/12/30 06:23:54;;;;;;;4.03;1.27;;;;;;;;;;5131586;27;20231;-75
2022/12/30 06:26:21;;;;;;;2.90;1.30;;;;;;;;;;5130664;27;20297;-75
2022/12/30 06:28:48;;;;;;;3.57;1.30;;;;;;;;;;5123715;27;20239;-76
2022/12/30 06:31:15;;;;;;;2.73;1.40;;;;;;;;;;5130709;27;20693;-77
2022/12/30 06:33:43;;;;;;;4.70;1.53;;;;;;;;;;5131045;27;20204;-77
2022/12/30 06:36:10;;;;;;;2.03;1.20;;;;;;;;;;5130960;27;20659;-76
2022/12/30 06:38:38;;;;;;;3.13;1.20;;;;;;;;;;5130605;27;20658;-76
2022/12/30 06:41:06;;;;;;;3.63;1.20;;;;;;;;;;5131268;27;20228;-76
2022/12/30 06:43:34;;;;;;;2.70;1.20;;;;;;;;;;5131120;27;20665;-76
2022/12/30 06:46:01;;;;;;;4.60;1.17;;;;;;;;;;5130862;27;20193;-77
2022/12/30 06:48:28;;;;;;;2.77;1.00;;;;;;;;;;5130610;27;20232;-76
2022/12/30 06:50:59;;;;;;;3.13;1.10;;;;;;;;;;5131411;27;20312;-76
2022/12/30 06:53:26;;;;;;;2.73;1.00;;;;;;;;;;5130960;27;20727;-76
2022/12/30 06:55:53;;;;;;;2.27;1.10;;;;;;;;;;5129940;27;20259;-76
2022/12/30 06:58:22;;;;;;;1.67;1.00;;;;;;;;;;5130135;27;20236;-77
2022/12/30 07:00:49;;;;;;;1.77;0.70;;;;;;;;;;5130933;27;20224;-76
2022/12/30 07:03:16;;;;;;;1.40;0.73;;;;;;;;;;5130127;27;20738;-76
2022/12/30 07:05:44;;;;;;;1.47;0.70;;;;;;;;;;5130717;27;20668;-76
2022/12/30 07:08:11;;;;;;;1.10;0.73;;;;;;;;;;5131097;27;20225;-76
2022/12/30 07:10:38;;;;;;;1.33;0.70;;;;;;;;;;5129771;27;20224;-75
2022/12/30 07:13:05;;;;;;;1.07;0.80;;;;;;;;;;5130583;27;20717;-76
2022/12/30 07:15:34;;;;;;;3.80;0.57;;;;;;;;;;5130285;27;20259;-76
2022/12/30 07:18:01;;;;;;;2.57;0.60;;;;;;;;;;5130619;28;20205;-76
2022/12/30 07:20:28;;;;;;;1.40;0.70;;;;;;;;;;5130117;28;20751;-76
2022/12/30 07:22:56;;;;;;;2.57;0.73;;;;;;;;;;5130369;28;20235;-77
2022/12/30 07:25:23;;;;;;;2.00;0.70;;;;;;;;;;5129475;28;20288;-77
2022/12/30 07:27:50;;;;;;;1.80;0.73;;;;;;;;;;5130408;28;20671;-77
2022/12/30 07:30:17;;;;;;;2.13;0.60;;;;;;;;;;5130200;28;20196;-77
2022/12/30 07:32:46;;;;;;;2.07;0.90;;;;;;;;;;5130530;28;20220;-76
2022/12/30 07:35:13;;;;;;;1.30;0.73;;;;;;;;;;5130846;28;20708;-77
2022/12/30 07:37:40;;;;;;;2.30;0.60;;;;;;;;;;5122128;28;20227;-76
2022/12/30 07:40:08;;;;;;;0.97;0.60;;;;;;;;;;5130407;28;20216;-76
2022/12/30 07:42:35;;;;;;;0.73;0.53;;;;;;;;;;5130108;28;20303;-77
2022/12/30 07:45:02;;;;;;;0.83;0.60;;;;;;;;;;5130559;28;20650;-76
2022/12/30 07:47:32;;;;;;;1.23;0.50;;;;;;;;;;5130453;28;20200;-75
2022/12/30 07:50:01;;;;;;;1.00;0.50;;;;;;;;;;5130655;28;20207;-76
2022/12/30 07:52:28;;;;;;;1.23;0.60;;;;;;;;;;5130343;28;20227;-77
2022/12/30 07:54:55;;;;;;;1.00;0.50;;;;;;;;;;5129472;28;20236;-76
2022/12/30 07:57:22;;;;;;;1.40;0.60;;;;;;;;;;5129776;28;20648;-77
2022/12/30 07:59:50;;;;;;;0.47;0.30;;;;;;;;;;5131275;28;20205;-74
2022/12/30 08:02:17;;;;;;;0.87;0.40;;;;;;;;;;5132154;28;20233;-76
2022/12/30 08:04:45;;;;;;;0.63;0.40;;;;;;;;;;5131616;28;20229;-74
2022/12/30 08:07:13;;;;;;;0.50;0.40;;;;;;;;;;5130711;28;20300;-74
2022/12/30 08:09:40;;;;;;;1.13;0.40;;;;;;;;;;5133233;28;20201;-76
2022/12/30 08:12:08;;;;;;;0.70;0.50;;;;;;;;;;5134508;28;20213;-76
2022/12/30 08:14:36;;;;;;;0.83;0.40;;;;;;;;;;5132330;28;20231;-75
2022/12/30 08:17:03;;;;;;;0.80;0.40;;;;;;;;;;5129921;28;20233;-74
2022/12/30 08:19:31;;;;;;;2.27;0.80;;;;;;;;;;5129816;28;20225;-76
2022/12/30 08:21:58;;;;;;;1.00;0.50;;;;;;;;;;5129815;27;20265;-75
2022/12/30 08:24:27;;;;;;;0.40;0.40;;;;;;;;;;5132292;27;20193;-75
2022/12/30 08:26:54;;;;;;;0.80;0.50;;;;;;;;;;5132483;27;20225;-76
2022/12/30 08:29:21;;;;;;;0.80;0.50;;;;;;;;;;5132178;27;20288;-75
2022/12/30 08:31:49;;;;;;;1.13;0.40;;;;;;;;;;5133460;27;20228;-75
2022/12/30 08:34:18;;;;;;;0.67;0.40;;;;;;;;;;5132213;27;20739;-75
2022/12/30 08:36:45;;;;;;;0.50;0.40;;;;;;;;;;5133102;27;20311;-75
2022/12/30 08:39:13;;;;;;;0.50;0.40;;;;;;;;;;5133210;27;20287;-75
2022/12/30 08:41:42;;;;;;;0.97;0.60;;;;;;;;;;5128172;27;20232;-74
2022/12/30 08:44:09;;;;;;;0.50;0.30;;;;;;;;;;5133722;27;20235;-75
2022/12/30 08:46:38;;;;;;;0.90;0.50;;;;;;;;;;5133918;27;20291;-76
2022/12/30 08:49:05;;;;;;;0.70;0.50;;;;;;;;;;5133879;27;20650;-75
2022/12/30 08:51:32;;;;;;;0.73;0.50;;;;;;;;;;5131992;27;20216;-76
2022/12/30 08:54:00;;;;;;;0.90;0.60;;;;;;;;;;5132982;27;20201;-76
2022/12/30 08:56:28;;;;;;;1.47;0.70;;;;;;;;;;5133316;27;20228;-75
2022/12/30 08:58:57;;;;;;;0.80;0.50;;;;;;;;;;5133452;27;20193;-74
2022/12/30 09:01:26;;;;;;;0.90;0.70;;;;;;;;;;5132592;27;20701;-77
2022/12/30 09:03:53;;;;;;;2.40;0.87;;;;;;;;;;5133252;27;20228;-78
2022/12/30 09:06:22;;;;;;;0.70;0.60;;;;;;;;;;5131813;27;20684;-76
2022/12/30 09:08:50;;;;;;;1.20;0.80;;;;;;;;;;5133071;27;20228;-78
2022/12/30 09:11:19;;;;;;;1.27;0.80;;;;;;;;;;5131032;27;20217;-76
2022/12/30 09:13:46;;;;;;;1.83;0.70;;;;;;;;;;5132317;27;20213;-78
2022/12/30 09:16:15;;;;;;;2.70;0.97;;;;;;;;;;5132661;27;20311;-77
2022/12/30 09:18:43;;;;;;;1.27;0.80;;;;;;;;;;5130590;27;20242;-78
2022/12/30 09:21:10;;;;;;;2.13;0.80;;;;;;;;;;5131954;27;20242;-76
2022/12/30 09:23:38;;;;;;;1.77;0.87;;;;;;;;;;5132579;27;20228;-77
2022/12/30 09:26:06;;;;;;;2.30;0.77;;;;;;;;;;5134827;27;20201;-77
2022/12/30 09:28:33;;;;;;;1.87;1.10;;;;;;;;;;5134727;27;20193;-76
2022/12/30 09:31:01;;;;;;;3.67;1.00;;;;;;;;;;5133863;27;20757;-76
2022/12/30 09:33:29;;;;;;;1.70;0.63;;;;;;;;;;5135508;27;20239;-75
2022/12/30 09:35:56;;;;;;;2.50;0.90;;;;;;;;;;5133198;27;20276;-76
2022/12/30 09:38:24;;;;;;;2.37;0.80;;;;;;;;;;5131206;27;20228;-77
2022/12/30 09:40:54;;;;;;;2.33;0.90;;;;;;;;;;5133572;27;20220;-77
2022/12/30 09:43:24;;;;;;;2.53;1.10;;;;;;;;;;5133900;27;20197;-77
2022/12/30 09:45:56;;;;;;;2.10;1.03;;;;;;;;;;5133993;27;20193;-76
2022/12/30 09:48:26;;;;;;;2.07;0.80;;;;;;;;;;5134342;27;20228;-76
2022/12/30 09:50:58;;;;;;;2.33;1.00;;;;;;;;;;5133591;27;20197;-77
2022/12/30 09:53:32;;;;;;;3.20;0.97;;;;;;;;;;5133740;27;20205;-75
2022/12/30 09:56:01;;;;;;;2.63;1.10;;;;;;;;;;5133859;27;20310;-75
2022/12/30 09:58:29;;;;;;;3.03;0.70;;;;;;;;;;5131840;27;20232;-76
2022/12/30 10:00:58;;;;;;;2.53;0.70;;;;;;;;;;5133897;27;20279;-75
2022/12/30 10:03:26;;;;;;;3.20;0.80;;;;;;;;;;5092352;28;20604;-76
2022/12/30 10:06:00;;;;;;;3.67;0.90;;;;;;;;;;5092394;28;20621;-76
2022/12/30 10:08:30;;;;;;;4.33;0.80;;;;;;;;;;5091011;28;20275;-74
2022/12/30 10:11:00;;;;;;;3.73;1.10;;;;;;;;;;5087829;28;20323;-77
2022/12/30 10:13:31;;;;;;;4.67;1.43;;;;;;;;;;5084304;28;20218;-75
2022/12/30 10:16:01;;;;;;;2.67;1.00;;;;;;;;;;5094716;28;20334;-74
2022/12/30 10:18:47;;;;;;;4.27;0.90;;;;;;;;;;5100330;28;20309;-78
2022/12/30 10:21:22;;;;;;;7.03;1.10;;;;;;;;;;5094411;28;20201;-76
2022/12/30 10:23:55;;;;;;;3.90;1.27;;;;;;;;;;5100149;28;20221;-75
2022/12/30 10:26:24;;;;;;;7.17;1.30;;;;;;;;;;5092920;28;20202;-75
2022/12/30 10:28:53;;;;;;;6.17;1.67;;;;;;;;;;5086372;28;20197;-77
2022/12/30 10:31:21;;;;;;;6.53;1.30;;;;;;;;;;5094073;28;20560;-77
2022/12/30 10:33:50;;;;;;;5.10;1.53;;;;;;;;;;5089618;28;20259;-77
2022/12/30 10:36:20;;;;;;;6.03;1.87;;;;;;;;;;5095661;28;20226;-77
2022/12/30 10:38:47;;;;;;;5.37;1.40;;;;;;;;;;5092399;28;20271;-77
2022/12/30 10:41:23;;;;;;;4.80;1.13;;;;;;;;;;5092371;28;20693;-77
2022/12/30 10:43:54;;;;;;;3.60;1.20;;;;;;;;;;5094033;28;20214;-78
2022/12/30 10:46:30;;;;;;;3.20;1.30;;;;;;;;;;5088051;28;20234;-77
2022/12/30 10:49:05;;;;;;;4.73;1.10;;;;;;;;;;5078058;28;20224;-77
2022/12/30 10:51:34;;;;;;;3.93;1.13;;;;;;;;;;5086579;28;20190;-78
2022/12/30 10:54:02;;;;;;;2.93;1.10;;;;;;;;;;5090934;28;20746;-77
2022/12/30 10:56:30;;;;;;;4.93;1.30;;;;;;;;;;5091027;28;20271;-75
2022/12/30 10:58:59;;;;;;;4.67;1.10;;;;;;;;;;5098573;28;20214;-76
2022/12/30 11:01:29;;;;;;;3.23;0.83;;;;;;;;;;5107266;27;20250;-77
2022/12/30 11:03:58;;;;;;;2.93;0.73;;;;;;;;;;5143077;27;20242;-77
2022/12/30 11:06:28;;;;;;;3.77;1.70;;;;;;;;;;5133438;27;20591;-77
2022/12/30 11:09:14;;;;;;;4.23;1.83;;;;;;;;;;5140481;27;20291;-76
2022/12/30 11:14:49;;;;;;;2.73;1.20;;;;;;;;;;5133074;27;20203;-74
2022/12/30 11:17:23;;;;;;;4.27;1.20;;;;;;;;;;5135730;27;20225;-77
2022/12/30 11:19:51;;;;;;;2.63;0.80;;;;;;;;;;5132528;27;20197;-76
2022/12/30 11:22:19;;;;;;;1.97;0.93;;;;;;;;;;5140696;27;20197;-75
2022/12/30 11:24:57;;;;;;;5.23;0.93;;;;;;;;;;5140071;27;20181;-77
2022/12/30 11:27:29;;;;;;;2.27;0.70;;;;;;;;;;5141970;27;20193;-77
2022/12/30 11:29:56;;;;;;;1.80;0.87;;;;;;;;;;5137926;27;20811;-76
2022/12/30 11:32:23;;;;;;;3.03;1.00;;;;;;;;;;5134961;28;20221;-76
2022/12/30 11:34:50;;;;;;;2.80;0.97;;;;;;;;;;5132679;27;20250;-76
2022/12/30 11:37:31;;;;;;;4.87;0.80;;;;;;;;;;5132017;28;20281;-77
2022/12/30 11:40:00;;;;;;;2.33;0.70;;;;;;;;;;5126946;28;20225;-77
2022/12/30 11:42:32;;;;;;;1.83;0.80;;;;;;;;;;5113644;28;20229;-76
2022/12/30 11:45:23;;;;;;;3.23;0.90;;;;;;;;;;5112585;28;20267;-75
2022/12/30 11:47:54;;;;;;;2.73;0.90;;;;;;;;;;5115185;28;20292;-75
2022/12/30 11:50:21;;;;;;;2.67;1.10;;;;;;;;;;5129722;27;20228;-75
2022/12/30 11:52:49;;;;;;;2.63;0.80;;;;;;;;;;5155867;27;20211;-78
2022/12/30 11:55:23;;;;;;;1.70;0.73;;;;;;;;;;5132156;28;20218;-76
2022/12/30 11:57:51;;;;;;;3.80;1.03;;;;;;;;;;5121415;27;20259;-77
2022/12/30 12:00:36;;;;;;;2.67;1.10;;;;;;;;;;5115489;28;20221;-76
2022/12/30 12:03:05;;;;;;;3.47;1.90;;;;;;;;;;5116698;28;20260;-77
2022/12/30 12:05:39;;;;;;;3.97;2.43;;;;;;;;;;5125035;27;20232;-76
2022/12/30 12:08:11;;;;;;;4.33;1.60;;;;;;;;;;5130232;27;20282;-77
2022/12/30 12:10:40;;;;;;;5.60;1.07;;;;;;;;;;5135253;27;20224;-76
2022/12/30 12:13:20;;;;;;;4.53;1.20;;;;;;;;;;5134828;27;20692;-75
2022/12/30 12:15:48;;;;;;;2.83;1.00;;;;;;;;;;5128310;27;20577;-75
2022/12/30 12:18:19;;;;;;;4.23;1.10;;;;;;;;;;5137815;27;20289;-75
2022/12/30 12:20:51;;;;;;;1.97;1.00;;;;;;;;;;5134931;27;20224;-76
2022/12/30 12:23:21;;;;;;;3.53;1.20;;;;;;;;;;5135586;27;20225;-75
2022/12/30 12:25:58;;;;;;;4.17;1.10;;;;;;;;;;5135900;27;20232;-74
2022/12/30 12:28:25;;;;;;;4.23;1.40;;;;;;;;;;5135247;27;20634;-74
2022/12/30 12:31:03;;;;;;;4.07;1.23;;;;;;;;;;5134930;27;20668;-74
2022/12/30 12:33:36;;;;;;;6.37;1.60;;;;;;;;;;5135268;27;20614;-73
2022/12/30 12:36:06;;;;;;;5.77;1.50;;;;;;;;;;5137369;27;20288;-76
2022/12/30 12:38:40;;;;;;;3.70;1.57;;;;;;;;;;5139282;27;20647;-76
2022/12/30 12:41:23;;;;;;;5.80;1.50;;;;;;;;;;5142882;27;20280;-77
2022/12/30 12:43:59;;;;;;;5.80;1.73;;;;;;;;;;5142995;27;20217;-76
2022/12/30 12:46:33;;;;;;;5.70;2.00;;;;;;;;;;5136658;27;20664;-76
2022/12/30 12:49:24;;;;;;;7.70;1.90;;;;;;;;;;5142466;27;20220;-76
2022/12/30 12:51:57;;;;;;;7.57;2.03;;;;;;;;;;5104133;27;20221;-73
2022/12/30 12:54:33;;;;;;;8.47;1.90;;;;;;;;;;5131008;27;20240;-76
2022/12/30 12:57:05;;;;;;;6.40;1.87;;;;;;;;;;5130735;27;20782;-76
2022/12/30 12:59:40;;;;;;;6.10;2.13;;;;;;;;;;5131006;27;20229;-75
2022/12/30 13:02:15;;;;;;;7.20;2.03;;;;;;;;;;5129440;27;20259;-75
2022/12/30 13:04:47;;;;;;;7.57;1.80;;;;;;;;;;5132399;27;20212;-76
2022/12/30 13:07:20;;;;;;;8.27;2.03;;;;;;;;;;5131595;27;20209;-76
2022/12/30 13:09:57;;;;;;;5.83;1.53;;;;;;;;;;5126579;27;20734;-74
2022/12/30 13:12:29;;;;;;;5.77;1.30;;;;;;;;;;5136331;27;21192;-76
2022/12/30 13:14:57;;;;;;;8.13;1.73;;;;;;;;;;5140971;27;20221;-75
2022/12/30 13:17:29;;;;;;;5.43;1.30;;;;;;;;;;5138126;27;20283;-75
2022/12/30 13:19:59;;;;;;;5.77;1.60;;;;;;;;;;5131664;27;20228;-75
2022/12/30 13:22:29;;;;;;;6.13;1.30;;;;;;;;;;5126010;27;20239;-74
2022/12/30 13:24:57;;;;;;;3.37;1.33;;;;;;;;;;5127342;27;20729;-75
2022/12/30 13:27:27;;;;;;;3.97;0.87;;;;;;;;;;5130552;27;20594;-75
2022/12/30 13:29:55;;;;;;;4.03;1.23;;;;;;;;;;5131296;27;20220;-74
2022/12/30 13:32:26;;;;;;;4.07;1.47;;;;;;;;;;5131374;27;20250;-74
2022/12/30 13:34:56;;;;;;;4.57;1.23;;;;;;;;;;5122249;27;20284;-73
2022/12/30 13:37:26;;;;;;;3.93;0.90;;;;;;;;;;5125926;27;20949;-76
2022/12/30 13:39:56;;;;;;;4.27;1.07;;;;;;;;;;5126387;27;20312;-76
2022/12/30 13:42:35;;;;;;;3.10;0.83;;;;;;;;;;5123618;27;20259;-77
2022/12/30 13:45:03;;;;;;;4.43;0.90;;;;;;;;;;5129685;27;20249;-76
2022/12/30 13:47:35;;;;;;;2.37;0.90;;;;;;;;;;5126287;27;20201;-76
2022/12/30 13:50:12;;;;;;;6.60;1.23;;;;;;;;;;5125443;27;20197;-74
2022/12/30 13:52:45;;;;;;;4.00;0.93;;;;;;;;;;5127363;27;20281;-75
2022/12/30 13:55:17;;;;;;;1.97;0.90;;;;;;;;;;5125683;27;20197;-75
2022/12/30 13:57:48;;;;;;;4.63;1.17;;;;;;;;;;5125729;27;20839;-75
2022/12/30 14:00:25;;;;;;;2.27;0.90;;;;;;;;;;5128056;27;20835;-74
2022/12/30 14:02:59;;;;;;;2.83;1.20;;;;;;;;;;5130914;27;20307;-75
2022/12/30 14:05:41;;;;;;;4.43;1.37;;;;;;;;;;5129083;27;20208;-75
2022/12/30 14:08:19;;;;;;;2.83;1.07;;;;;;;;;;5118663;27;20297;-74
2022/12/30 14:10:54;;;;;;;3.73;1.40;;;;;;;;;;5121781;27;20696;-75
2022/12/30 14:13:37;;;;;;;2.33;1.47;;;;;;;;;;5127946;27;20295;-75
2022/12/30 14:16:05;;;;;;;3.20;1.53;;;;;;;;;;5132100;27;20666;-75
2022/12/30 14:18:41;;;;;;;5.27;1.63;;;;;;;;;;5131561;27;20760;-75
2022/12/30 14:21:10;;;;;;;4.33;1.30;;;;;;;;;;5131689;27;20715;-75
2022/12/30 14:23:39;;;;;;;2.90;1.00;;;;;;;;;;5138215;27;20220;-76
2022/12/30 14:26:25;;;;;;;3.17;1.10;;;;;;;;;;5153697;27;20223;-76
2022/12/30 14:28:54;;;;;;;2.87;1.20;;;;;;;;;;5132110;27;20644;-76
2022/12/30 14:31:25;;;;;;;3.63;1.30;;;;;;;;;;5132175;27;20291;-77
2022/12/30 14:33:52;;;;;;;3.63;1.30;;;;;;;;;;5130057;27;20684;-78
2022/12/30 14:36:21;;;;;;;5.17;2.00;;;;;;;;;;5129891;27;20477;-78
2022/12/30 14:38:56;;;;;;;4.23;1.70;;;;;;;;;;5128012;27;20273;-79
2022/12/30 14:41:24;;;;;;;2.87;1.30;;;;;;;;;;5133774;27;20228;-77
2022/12/30 14:43:54;;;;;;;3.33;1.20;;;;;;;;;;5133673;27;20197;-77
2022/12/30 14:46:51;;;;;;;3.37;1.10;;;;;;;;;;5131585;27;20192;-78
2022/12/30 14:49:20;;;;;;;4.60;1.37;;;;;;;;;;5129077;27;20224;-78
2022/12/30 14:51:49;;;;;;;6.13;1.53;;;;;;;;;;5127590;27;20225;-79
2022/12/30 14:54:17;;;;;;;5.40;1.33;;;;;;;;;;5125360;27;20228;-78
2022/12/30 14:56:49;;;;;;;4.87;1.00;;;;;;;;;;5130501;27;20227;-79
2022/12/30 14:59:19;;;;;;;5.67;1.33;;;;;;;;;;5131782;27;20812;-78
2022/12/30 15:02:01;;;;;;;5.27;1.37;;;;;;;;;;5128447;27;20281;-78
2022/12/30 15:04:28;;;;;;;6.03;1.93;;;;;;;;;;5127194;27;20201;-79
2022/12/30 15:06:55;;;;;;;5.83;1.30;;;;;;;;;;5127577;27;20264;-78
2022/12/30 15:09:25;;;;;;;5.17;1.33;;;;;;;;;;5130334;27;20245;-78
2022/12/30 15:11:56;;;;;;;4.70;1.67;;;;;;;;;;5135842;27;20284;-79
2022/12/30 15:14:24;;;;;;;6.03;1.40;;;;;;;;;;5134926;27;20227;-78
2022/12/30 15:17:06;;;;;;;5.67;1.80;;;;;;;;;;5129409;27;20306;-77
2022/12/30 15:19:33;;;;;;;3.83;1.27;;;;;;;;;;5128964;27;20732;-78
2022/12/30 15:22:00;;;;;;;6.33;1.80;;;;;;;;;;5131790;28;20223;-77
2022/12/30 15:24:27;;;;;;;6.60;1.90;;;;;;;;;;5130578;27;20308;-78
2022/12/30 15:26:55;;;;;;;4.53;1.93;;;;;;;;;;5131410;28;20225;-77
2022/12/30 15:29:27;;;;;;;4.10;1.60;;;;;;;;;;5131229;28;20288;-76
2022/12/30 15:31:55;;;;;;;5.27;1.60;;;;;;;;;;5131965;27;20213;-78
2022/12/30 15:34:24;;;;;;;4.07;1.77;;;;;;;;;;5135467;27;20288;-77
2022/12/30 15:36:52;;;;;;;4.40;1.50;;;;;;;;;;5154144;27;20212;-78
2022/12/30 15:39:20;;;;;;;5.47;1.57;;;;;;;;;;5152874;27;20718;-77
2022/12/30 15:41:48;;;;;;;4.83;1.53;;;;;;;;;;5139384;27;20189;-78
2022/12/30 15:44:19;;;;;;;4.87;1.40;;;;;;;;;;5135824;27;20196;-77
2022/12/30 15:46:55;;;;;;;3.23;1.40;;;;;;;;;;5135957;27;20247;-77